Rogue Valley International Medford Airport
KMFR : now visible

Airfield :











YOU CAN JOIN US ON...

 
LOGIN :

Register | Disclaimer

   EN    FR    IT 

 









Legend :    VFR   Marginal VFR   IFR   Intensive IFR   Very Intensive IFR
Visi :
Ceiling :
>= 8 km
>= 3000ft
5 to 8 km
1000 to 3000 ft
1500m to 5 km
500 to 1000 ft
800 to 1500m
200 to 500 ft
< 800m
< 200 ft
Symbols :   Thunderstorms  Fog  Heavy snow  Heavy precipitations  Wind > 20 kt






- Airport Elevation : 1335 ft
- IATA code : MFR


KMFR - Rogue Valley International Medford

CURRENT METAR :
  • 151753Z 00000KT 10SM OVC050 10/04 A3023 RMK AO2 SLP239 60000 T01000044 10100 20067 51023

EXPIRED METARs :
  • 151653Z 00000KT 10SM OVC049 09/04 A3021 RMK AO2 SLP234 T00890044
  • 151553Z 00000KT 10SM OVC045 08/04 A3019 RMK AO2 RAE03 SLP225 P0000 T00830044

TAF KMFR
Valid from the 15 at 18:00 until the 16 at 18:00 UTC


151742Z 1518/1618 VRB03KT P6SM OVC050
FM160700 VRB03KT P6SM BKN025
FM160900 00000KT P6SM BKN012



MET'MAP, your aeronautical weather chart ! - Copyright ORBIFLY December 2007 - Disclaimer

ORBIFLY MET'MAP TEAM :

Programming & Development : Alexandra Zaïnal
Concept & Development : Baudouin d'Aumeries
Co-Development & Prog : Marc-Olivier Méhu
Technical & hardware support : Manuel Goepfert

Contact : metmap@orbifly.com




SOURCES & CREDITS :

   NOAA       Earth
Advisory